sensor_id;sensor_type;location;lat;lon;timestamp;P1;durP1;ratioP1;P2;durP2;ratioP2
34978;SDS011;21185;50.978;13.720;2023-04-24T00:02:23;4.20;;;2.38;;
34978;SDS011;21185;50.978;13.720;2023-04-24T00:07:26;4.70;;;2.22;;
34978;SDS011;21185;50.978;13.720;2023-04-24T00:12:28;3.72;;;2.25;;
34978;SDS011;21185;50.978;13.720;2023-04-24T00:17:29;6.82;;;2.55;;
34978;SDS011;21185;50.978;13.720;2023-04-24T00:22:32;3.25;;;2.00;;
34978;SDS011;21185;50.978;13.720;2023-04-24T00:27:35;3.63;;;2.20;;
34978;SDS011;21185;50.978;13.720;2023-04-24T00:32:38;4.28;;;2.42;;
34978;SDS011;21185;50.978;13.720;2023-04-24T00:37:40;12.05;;;2.67;;
34978;SDS011;21185;50.978;13.720;2023-04-24T00:42:43;4.18;;;2.10;;
34978;SDS011;21185;50.978;13.720;2023-04-24T00:47:47;3.40;;;2.00;;
34978;SDS011;21185;50.978;13.720;2023-04-24T00:52:49;2.90;;;2.00;;
34978;SDS011;21185;50.978;13.720;2023-04-24T00:57:52;3.17;;;2.22;;
34978;SDS011;21185;50.978;13.720;2023-04-24T01:02:54;2.92;;;1.85;;
34978;SDS011;21185;50.978;13.720;2023-04-24T01:07:57;3.03;;;1.73;;
34978;SDS011;21185;50.978;13.720;2023-04-24T01:13:04;2.92;;;1.65;;
34978;SDS011;21185;50.978;13.720;2023-04-24T01:18:08;3.25;;;1.80;;
34978;SDS011;21185;50.978;13.720;2023-04-24T01:23:12;6.15;;;1.73;;
34978;SDS011;21185;50.978;13.720;2023-04-24T01:28:14;3.60;;;1.95;;
34978;SDS011;21185;50.978;13.720;2023-04-24T01:33:16;4.38;;;2.00;;
34978;SDS011;21185;50.978;13.720;2023-04-24T01:38:19;3.45;;;1.95;;
34978;SDS011;21185;50.978;13.720;2023-04-24T01:43:21;3.67;;;1.85;;
34978;SDS011;21185;50.978;13.720;2023-04-24T01:48:23;2.67;;;1.90;;
34978;SDS011;21185;50.978;13.720;2023-04-24T01:53:26;3.17;;;2.10;;
34978;SDS011;21185;50.978;13.720;2023-04-24T01:58:28;3.03;;;2.30;;
34978;SDS011;21185;50.978;13.720;2023-04-24T02:03:30;4.07;;;2.28;;
34978;SDS011;21185;50.978;13.720;2023-04-24T02:08:33;3.47;;;2.30;;
34978;SDS011;21185;50.978;13.720;2023-04-24T02:13:35;5.20;;;2.70;;
34978;SDS011;21185;50.978;13.720;2023-04-24T02:18:38;2.60;;;1.80;;
34978;SDS011;21185;50.978;13.720;2023-04-24T02:23:41;1.92;;;1.30;;
34978;SDS011;21185;50.978;13.720;2023-04-24T02:28:45;2.35;;;1.52;;
34978;SDS011;21185;50.978;13.720;2023-04-24T02:33:47;3.22;;;1.50;;
34978;SDS011;21185;50.978;13.720;2023-04-24T02:38:49;1.63;;;1.02;;
34978;SDS011;21185;50.978;13.720;2023-04-24T02:43:50;1.10;;;0.80;;
34978;SDS011;21185;50.978;13.720;2023-04-24T02:48:52;1.70;;;1.20;;
34978;SDS011;21185;50.978;13.720;2023-04-24T02:53:54;1.25;;;1.08;;
34978;SDS011;21185;50.978;13.720;2023-04-24T02:59:00;1.13;;;0.80;;
34978;SDS011;21185;50.978;13.720;2023-04-24T03:04:02;1.35;;;0.77;;
34978;SDS011;21185;50.978;13.720;2023-04-24T03:09:04;3.60;;;1.50;;
34978;SDS011;21185;50.978;13.720;2023-04-24T03:14:06;1.00;;;0.90;;
34978;SDS011;21185;50.978;13.720;2023-04-24T03:19:11;1.33;;;0.70;;
34978;SDS011;21185;50.978;13.720;2023-04-24T03:24:32;0.80;;;0.80;;
34978;SDS011;21185;50.978;13.720;2023-04-24T03:29:35;0.80;;;0.80;;
34978;SDS011;21185;50.978;13.720;2023-04-24T03:34:37;1.30;;;0.90;;
34978;SDS011;21185;50.978;13.720;2023-04-24T03:39:41;1.13;;;0.63;;
34978;SDS011;21185;50.978;13.720;2023-04-24T03:44:45;2.80;;;0.70;;
34978;SDS011;21185;50.978;13.720;2023-04-24T03:49:49;0.57;;;0.50;;
34978;SDS011;21185;50.978;13.720;2023-04-24T03:54:52;0.68;;;0.60;;
34978;SDS011;21185;50.978;13.720;2023-04-24T03:59:54;3.53;;;0.73;;
34978;SDS011;21185;50.978;13.720;2023-04-24T04:04:59;0.68;;;0.60;;
34978;SDS011;21185;50.978;13.720;2023-04-24T04:10:01;2.08;;;0.75;;
34978;SDS011;21185;50.978;13.720;2023-04-24T04:15:04;0.50;;;0.50;;
34978;SDS011;21185;50.978;13.720;2023-04-24T04:20:08;0.70;;;0.60;;
34978;SDS011;21185;50.978;13.720;2023-04-24T04:25:14;0.50;;;0.50;;
34978;SDS011;21185;50.978;13.720;2023-04-24T04:30:23;1.45;;;0.75;;
34978;SDS011;21185;50.978;13.720;2023-04-24T04:35:31;0.70;;;0.70;;
34978;SDS011;21185;50.978;13.720;2023-04-24T04:40:33;1.27;;;0.63;;
34978;SDS011;21185;50.978;13.720;2023-04-24T04:45:40;1.33;;;0.52;;
34978;SDS011;21185;50.978;13.720;2023-04-24T04:51:07;0.95;;;0.60;;
34978;SDS011;21185;50.978;13.720;2023-04-24T04:56:10;2.38;;;0.50;;
34978;SDS011;21185;50.978;13.720;2023-04-24T05:01:18;0.50;;;0.43;;
34978;SDS011;21185;50.978;13.720;2023-04-24T05:06:22;2.17;;;0.70;;
34978;SDS011;21185;50.978;13.720;2023-04-24T05:11:26;2.53;;;0.70;;
34978;SDS011;21185;50.978;13.720;2023-04-24T05:16:29;1.30;;;0.50;;
34978;SDS011;21185;50.978;13.720;2023-04-24T05:21:32;0.93;;;0.70;;
34978;SDS011;21185;50.978;13.720;2023-04-24T05:26:34;0.40;;;0.40;;
34978;SDS011;21185;50.978;13.720;2023-04-24T05:31:39;1.05;;;0.70;;
34978;SDS011;21185;50.978;13.720;2023-04-24T05:36:42;0.43;;;0.43;;
34978;SDS011;21185;50.978;13.720;2023-04-24T05:41:44;3.28;;;0.60;;
34978;SDS011;21185;50.978;13.720;2023-04-24T05:46:46;1.48;;;0.60;;
34978;SDS011;21185;50.978;13.720;2023-04-24T05:51:51;0.50;;;0.50;;
34978;SDS011;21185;50.978;13.720;2023-04-24T05:56:53;1.33;;;0.85;;
34978;SDS011;21185;50.978;13.720;2023-04-24T06:02:07;1.13;;;0.70;;
34978;SDS011;21185;50.978;13.720;2023-04-24T06:07:13;0.82;;;0.50;;
34978;SDS011;21185;50.978;13.720;2023-04-24T06:12:17;1.80;;;0.50;;
34978;SDS011;21185;50.978;13.720;2023-04-24T06:17:32;0.63;;;0.60;;
34978;SDS011;21185;50.978;13.720;2023-04-24T06:22:34;0.90;;;0.65;;
34978;SDS011;21185;50.978;13.720;2023-04-24T06:27:37;1.83;;;0.70;;
34978;SDS011;21185;50.978;13.720;2023-04-24T06:32:39;0.35;;;0.35;;
34978;SDS011;21185;50.978;13.720;2023-04-24T06:37:41;0.47;;;0.47;;
34978;SDS011;21185;50.978;13.720;2023-04-24T06:42:44;2.58;;;0.60;;
34978;SDS011;21185;50.978;13.720;2023-04-24T06:47:46;1.63;;;0.50;;
34978;SDS011;21185;50.978;13.720;2023-04-24T06:52:54;1.73;;;0.50;;
34978;SDS011;21185;50.978;13.720;2023-04-24T06:57:56;0.80;;;0.70;;
34978;SDS011;21185;50.978;13.720;2023-04-24T07:02:58;4.40;;;0.55;;
34978;SDS011;21185;50.978;13.720;2023-04-24T07:08:01;0.52;;;0.50;;
34978;SDS011;21185;50.978;13.720;2023-04-24T07:13:03;0.70;;;0.47;;
34978;SDS011;21185;50.978;13.720;2023-04-24T07:18:06;0.52;;;0.30;;
34978;SDS011;21185;50.978;13.720;2023-04-24T07:23:09;0.88;;;0.43;;
34978;SDS011;21185;50.978;13.720;2023-04-24T07:28:11;2.00;;;0.50;;
34978;SDS011;21185;50.978;13.720;2023-04-24T07:33:14;0.68;;;0.50;;
34978;SDS011;21185;50.978;13.720;2023-04-24T07:38:16;0.98;;;0.60;;
34978;SDS011;21185;50.978;13.720;2023-04-24T07:43:19;0.85;;;0.50;;
34978;SDS011;21185;50.978;13.720;2023-04-24T07:48:22;1.75;;;0.70;;
34978;SDS011;21185;50.978;13.720;2023-04-24T07:53:26;1.42;;;0.63;;
34978;SDS011;21185;50.978;13.720;2023-04-24T07:58:28;10.93;;;0.85;;
34978;SDS011;21185;50.978;13.720;2023-04-24T08:03:30;0.55;;;0.30;;
34978;SDS011;21185;50.978;13.720;2023-04-24T08:08:33;0.43;;;0.30;;
34978;SDS011;21185;50.978;13.720;2023-04-24T08:13:36;1.15;;;0.32;;
34978;SDS011;21185;50.978;13.720;2023-04-24T08:18:38;0.63;;;0.32;;
34978;SDS011;21185;50.978;13.720;2023-04-24T08:23:41;0.50;;;0.50;;
34978;SDS011;21185;50.978;13.720;2023-04-24T08:28:43;3.65;;;0.40;;
34978;SDS011;21185;50.978;13.720;2023-04-24T08:33:45;0.38;;;0.38;;
34978;SDS011;21185;50.978;13.720;2023-04-24T08:38:47;1.10;;;0.30;;
34978;SDS011;21185;50.978;13.720;2023-04-24T08:43:49;0.30;;;0.30;;
34978;SDS011;21185;50.978;13.720;2023-04-24T08:48:53;1.58;;;0.60;;
34978;SDS011;21185;50.978;13.720;2023-04-24T08:53:55;0.40;;;0.40;;
34978;SDS011;21185;50.978;13.720;2023-04-24T08:58:59;0.30;;;0.30;;
34978;SDS011;21185;50.978;13.720;2023-04-24T09:04:02;0.20;;;0.20;;
34978;SDS011;21185;50.978;13.720;2023-04-24T09:09:11;1.60;;;0.45;;
34978;SDS011;21185;50.978;13.720;2023-04-24T09:19:15;0.85;;;0.50;;
34978;SDS011;21185;50.978;13.720;2023-04-24T09:24:18;0.63;;;0.40;;
34978;SDS011;21185;50.978;13.720;2023-04-24T09:29:24;0.40;;;0.40;;
34978;SDS011;21185;50.978;13.720;2023-04-24T09:34:26;1.27;;;0.50;;
34978;SDS011;21185;50.978;13.720;2023-04-24T09:39:29;0.90;;;0.30;;
34978;SDS011;21185;50.978;13.720;2023-04-24T09:44:34;3.50;;;0.60;;
34978;SDS011;21185;50.978;13.720;2023-04-24T09:49:36;0.40;;;0.40;;
34978;SDS011;21185;50.978;13.720;2023-04-24T09:54:41;7.55;;;0.47;;
34978;SDS011;21185;50.978;13.720;2023-04-24T09:59:45;0.52;;;0.30;;
34978;SDS011;21185;50.978;13.720;2023-04-24T10:05:01;0.40;;;0.40;;
34978;SDS011;21185;50.978;13.720;2023-04-24T10:10:04;0.20;;;0.20;;
34978;SDS011;21185;50.978;13.720;2023-04-24T10:15:09;0.43;;;0.40;;
34978;SDS011;21185;50.978;13.720;2023-04-24T10:20:14;0.30;;;0.30;;
34978;SDS011;21185;50.978;13.720;2023-04-24T10:25:20;0.30;;;0.30;;
34978;SDS011;21185;50.978;13.720;2023-04-24T10:30:25;0.43;;;0.22;;
34978;SDS011;21185;50.978;13.720;2023-04-24T10:35:32;0.82;;;0.63;;
34978;SDS011;21185;50.978;13.720;2023-04-24T10:40:39;2.38;;;0.40;;
34978;SDS011;21185;50.978;13.720;2023-04-24T10:45:41;1.13;;;0.85;;
34978;SDS011;21185;50.978;13.720;2023-04-24T10:51:06;0.75;;;0.35;;
34978;SDS011;21185;50.978;13.720;2023-04-24T10:56:15;2.43;;;0.50;;
34978;SDS011;21185;50.978;13.720;2023-04-24T11:01:27;1.25;;;0.50;;
34978;SDS011;21185;50.978;13.720;2023-04-24T11:06:35;0.20;;;0.20;;
34978;SDS011;21185;50.978;13.720;2023-04-24T11:11:38;0.87;;;0.50;;
34978;SDS011;21185;50.978;13.720;2023-04-24T11:16:54;0.47;;;0.38;;
34978;SDS011;21185;50.978;13.720;2023-04-24T11:21:58;0.38;;;0.32;;
34978;SDS011;21185;50.978;13.720;2023-04-24T11:27:12;2.60;;;0.60;;
34978;SDS011;21185;50.978;13.720;2023-04-24T11:32:17;1.80;;;0.45;;
34978;SDS011;21185;50.978;13.720;2023-04-24T11:37:52;0.80;;;0.55;;
34978;SDS011;21185;50.978;13.720;2023-04-24T11:42:59;1.37;;;0.60;;
34978;SDS011;21185;50.978;13.720;2023-04-24T11:48:02;1.25;;;0.50;;
34978;SDS011;21185;50.978;13.720;2023-04-24T11:53:05;0.32;;;0.30;;
34978;SDS011;21185;50.978;13.720;2023-04-24T11:58:07;0.20;;;0.20;;
34978;SDS011;21185;50.978;13.720;2023-04-24T12:03:10;3.53;;;0.50;;
34978;SDS011;21185;50.978;13.720;2023-04-24T12:08:29;0.68;;;0.50;;
34978;SDS011;21185;50.978;13.720;2023-04-24T12:13:31;0.83;;;0.50;;
34978;SDS011;21185;50.978;13.720;2023-04-24T12:18:33;2.17;;;0.60;;
34978;SDS011;21185;50.978;13.720;2023-04-24T12:23:35;0.80;;;0.40;;
34978;SDS011;21185;50.978;13.720;2023-04-24T12:28:38;7.25;;;0.52;;
34978;SDS011;21185;50.978;13.720;2023-04-24T12:33:40;0.55;;;0.50;;
34978;SDS011;21185;50.978;13.720;2023-04-24T12:38:43;0.50;;;0.50;;
34978;SDS011;21185;50.978;13.720;2023-04-24T12:43:52;0.65;;;0.52;;
34978;SDS011;21185;50.978;13.720;2023-04-24T12:48:54;0.40;;;0.40;;
34978;SDS011;21185;50.978;13.720;2023-04-24T12:53:56;0.52;;;0.52;;
34978;SDS011;21185;50.978;13.720;2023-04-24T12:58:59;0.40;;;0.40;;
34978;SDS011;21185;50.978;13.720;2023-04-24T13:04:01;2.95;;;0.50;;
34978;SDS011;21185;50.978;13.720;2023-04-24T13:09:04;0.50;;;0.50;;
34978;SDS011;21185;50.978;13.720;2023-04-24T13:14:07;0.55;;;0.55;;
34978;SDS011;21185;50.978;13.720;2023-04-24T13:19:09;0.95;;;0.50;;
34978;SDS011;21185;50.978;13.720;2023-04-24T13:24:11;0.50;;;0.40;;
34978;SDS011;21185;50.978;13.720;2023-04-24T13:29:13;0.52;;;0.50;;
34978;SDS011;21185;50.978;13.720;2023-04-24T13:34:15;3.38;;;0.60;;
34978;SDS011;21185;50.978;13.720;2023-04-24T13:39:17;2.63;;;0.60;;
34978;SDS011;21185;50.978;13.720;2023-04-24T13:44:19;0.50;;;0.43;;
34978;SDS011;21185;50.978;13.720;2023-04-24T13:49:49;0.68;;;0.50;;
34978;SDS011;21185;50.978;13.720;2023-04-24T13:54:51;0.45;;;0.40;;
34978;SDS011;21185;50.978;13.720;2023-04-24T13:59:53;4.25;;;0.63;;
34978;SDS011;21185;50.978;13.720;2023-04-24T14:04:57;0.60;;;0.50;;
34978;SDS011;21185;50.978;13.720;2023-04-24T14:09:59;0.63;;;0.50;;
34978;SDS011;21185;50.978;13.720;2023-04-24T14:15:01;0.98;;;0.60;;
34978;SDS011;21185;50.978;13.720;2023-04-24T14:20:04;1.05;;;0.47;;
34978;SDS011;21185;50.978;13.720;2023-04-24T14:25:07;0.55;;;0.55;;
34978;SDS011;21185;50.978;13.720;2023-04-24T14:30:09;0.45;;;0.45;;
34978;SDS011;21185;50.978;13.720;2023-04-24T14:35:11;0.60;;;0.60;;
34978;SDS011;21185;50.978;13.720;2023-04-24T14:40:13;1.05;;;0.60;;
34978;SDS011;21185;50.978;13.720;2023-04-24T14:45:36;0.70;;;0.50;;
34978;SDS011;21185;50.978;13.720;2023-04-24T14:50:40;1.75;;;0.77;;
34978;SDS011;21185;50.978;13.720;2023-04-24T14:55:42;0.68;;;0.50;;
34978;SDS011;21185;50.978;13.720;2023-04-24T15:01:24;1.38;;;0.80;;
34978;SDS011;21185;50.978;13.720;2023-04-24T15:06:25;0.70;;;0.60;;
34978;SDS011;21185;50.978;13.720;2023-04-24T15:11:27;0.60;;;0.50;;
34978;SDS011;21185;50.978;13.720;2023-04-24T15:16:29;2.20;;;0.70;;
34978;SDS011;21185;50.978;13.720;2023-04-24T15:21:36;1.13;;;0.88;;
34978;SDS011;21185;50.978;13.720;2023-04-24T15:26:39;5.68;;;0.70;;
34978;SDS011;21185;50.978;13.720;2023-04-24T15:31:41;2.15;;;0.65;;
34978;SDS011;21185;50.978;13.720;2023-04-24T15:36:43;1.33;;;0.70;;
34978;SDS011;21185;50.978;13.720;2023-04-24T15:41:45;2.33;;;0.82;;
34978;SDS011;21185;50.978;13.720;2023-04-24T15:46:48;1.15;;;0.68;;
34978;SDS011;21185;50.978;13.720;2023-04-24T15:51:52;1.55;;;0.70;;
34978;SDS011;21185;50.978;13.720;2023-04-24T15:56:55;0.77;;;0.70;;
34978;SDS011;21185;50.978;13.720;2023-04-24T16:01:57;2.45;;;0.80;;
34978;SDS011;21185;50.978;13.720;2023-04-24T16:12:21;1.10;;;0.68;;
34978;SDS011;21185;50.978;13.720;2023-04-24T16:17:23;0.88;;;0.85;;
34978;SDS011;21185;50.978;13.720;2023-04-24T16:22:26;0.77;;;0.70;;
34978;SDS011;21185;50.978;13.720;2023-04-24T16:27:28;1.73;;;0.95;;
34978;SDS011;21185;50.978;13.720;2023-04-24T16:32:29;1.65;;;0.88;;
34978;SDS011;21185;50.978;13.720;2023-04-24T16:37:31;1.27;;;0.93;;
34978;SDS011;21185;50.978;13.720;2023-04-24T16:42:33;2.05;;;0.77;;
34978;SDS011;21185;50.978;13.720;2023-04-24T16:47:35;0.40;;;0.40;;
34978;SDS011;21185;50.978;13.720;2023-04-24T16:52:37;0.90;;;0.52;;
34978;SDS011;21185;50.978;13.720;2023-04-24T16:57:40;3.63;;;0.73;;
34978;SDS011;21185;50.978;13.720;2023-04-24T17:02:42;1.73;;;0.90;;
34978;SDS011;21185;50.978;13.720;2023-04-24T17:07:50;1.20;;;0.90;;
34978;SDS011;21185;50.978;13.720;2023-04-24T17:12:58;0.57;;;0.57;;
34978;SDS011;21185;50.978;13.720;2023-04-24T17:18:01;1.58;;;0.73;;
34978;SDS011;21185;50.978;13.720;2023-04-24T17:23:03;1.75;;;1.25;;
34978;SDS011;21185;50.978;13.720;2023-04-24T17:28:12;0.82;;;0.55;;
34978;SDS011;21185;50.978;13.720;2023-04-24T17:33:37;0.60;;;0.50;;
34978;SDS011;21185;50.978;13.720;2023-04-24T17:38:39;0.50;;;0.50;;
34978;SDS011;21185;50.978;13.720;2023-04-24T17:43:41;0.88;;;0.70;;
34978;SDS011;21185;50.978;13.720;2023-04-24T17:48:45;0.52;;;0.52;;
34978;SDS011;21185;50.978;13.720;2023-04-24T17:53:50;0.88;;;0.70;;
34978;SDS011;21185;50.978;13.720;2023-04-24T17:58:54;0.82;;;0.60;;
34978;SDS011;21185;50.978;13.720;2023-04-24T18:03:56;1.15;;;0.70;;
34978;SDS011;21185;50.978;13.720;2023-04-24T18:08:59;1.02;;;0.60;;
34978;SDS011;21185;50.978;13.720;2023-04-24T18:14:01;0.90;;;0.50;;
34978;SDS011;21185;50.978;13.720;2023-04-24T18:19:03;0.88;;;0.50;;
34978;SDS011;21185;50.978;13.720;2023-04-24T18:24:05;1.33;;;0.75;;
34978;SDS011;21185;50.978;13.720;2023-04-24T18:29:07;0.98;;;0.88;;
34978;SDS011;21185;50.978;13.720;2023-04-24T18:34:12;1.23;;;0.73;;
34978;SDS011;21185;50.978;13.720;2023-04-24T18:39:14;0.98;;;0.55;;
34978;SDS011;21185;50.978;13.720;2023-04-24T18:44:16;0.82;;;0.63;;
34978;SDS011;21185;50.978;13.720;2023-04-24T18:49:19;1.40;;;0.70;;
34978;SDS011;21185;50.978;13.720;2023-04-24T18:54:21;0.93;;;0.70;;
34978;SDS011;21185;50.978;13.720;2023-04-24T18:59:23;1.02;;;0.77;;
34978;SDS011;21185;50.978;13.720;2023-04-24T19:04:25;0.95;;;0.65;;
34978;SDS011;21185;50.978;13.720;2023-04-24T19:09:27;0.50;;;0.50;;
34978;SDS011;21185;50.978;13.720;2023-04-24T19:14:29;1.20;;;0.75;;
34978;SDS011;21185;50.978;13.720;2023-04-24T19:19:31;2.08;;;0.80;;
34978;SDS011;21185;50.978;13.720;2023-04-24T19:24:33;1.08;;;0.68;;
34978;SDS011;21185;50.978;13.720;2023-04-24T19:29:35;0.70;;;0.52;;
34978;SDS011;21185;50.978;13.720;2023-04-24T19:34:40;3.40;;;0.77;;
34978;SDS011;21185;50.978;13.720;2023-04-24T19:39:42;0.43;;;0.40;;
34978;SDS011;21185;50.978;13.720;2023-04-24T19:44:44;0.60;;;0.60;;
34978;SDS011;21185;50.978;13.720;2023-04-24T19:49:46;3.38;;;0.55;;
34978;SDS011;21185;50.978;13.720;2023-04-24T19:54:48;0.60;;;0.60;;
34978;SDS011;21185;50.978;13.720;2023-04-24T19:59:51;0.80;;;0.57;;
34978;SDS011;21185;50.978;13.720;2023-04-24T20:04:53;0.60;;;0.60;;
34978;SDS011;21185;50.978;13.720;2023-04-24T20:09:55;0.73;;;0.60;;
34978;SDS011;21185;50.978;13.720;2023-04-24T20:14:57;1.00;;;0.70;;
34978;SDS011;21185;50.978;13.720;2023-04-24T20:19:59;1.00;;;0.77;;
34978;SDS011;21185;50.978;13.720;2023-04-24T20:25:01;0.65;;;0.65;;
34978;SDS011;21185;50.978;13.720;2023-04-24T20:30:04;1.35;;;0.93;;
34978;SDS011;21185;50.978;13.720;2023-04-24T20:35:07;1.20;;;1.02;;
34978;SDS011;21185;50.978;13.720;2023-04-24T20:40:09;1.50;;;1.23;;
34978;SDS011;21185;50.978;13.720;2023-04-24T20:45:12;2.67;;;1.52;;
34978;SDS011;21185;50.978;13.720;2023-04-24T20:50:14;1.60;;;0.80;;
34978;SDS011;21185;50.978;13.720;2023-04-24T20:55:16;11.30;;;2.38;;
34978;SDS011;21185;50.978;13.720;2023-04-24T21:00:18;3.13;;;1.10;;
34978;SDS011;21185;50.978;13.720;2023-04-24T21:05:20;1.48;;;1.00;;
34978;SDS011;21185;50.978;13.720;2023-04-24T21:10:22;2.00;;;1.35;;
34978;SDS011;21185;50.978;13.720;2023-04-24T21:15:26;1.60;;;0.90;;
34978;SDS011;21185;50.978;13.720;2023-04-24T21:20:28;2.63;;;1.00;;
34978;SDS011;21185;50.978;13.720;2023-04-24T21:25:30;0.80;;;0.80;;
34978;SDS011;21185;50.978;13.720;2023-04-24T21:30:33;1.35;;;0.90;;
34978;SDS011;21185;50.978;13.720;2023-04-24T21:35:35;4.90;;;1.27;;
34978;SDS011;21185;50.978;13.720;2023-04-24T21:40:37;0.98;;;0.82;;
34978;SDS011;21185;50.978;13.720;2023-04-24T21:45:39;3.63;;;1.15;;
34978;SDS011;21185;50.978;13.720;2023-04-24T21:50:41;4.43;;;1.15;;
34978;SDS011;21185;50.978;13.720;2023-04-24T21:55:43;2.03;;;1.00;;
34978;SDS011;21185;50.978;13.720;2023-04-24T22:00:46;1.40;;;1.08;;
34978;SDS011;21185;50.978;13.720;2023-04-24T22:05:48;2.40;;;1.15;;
34978;SDS011;21185;50.978;13.720;2023-04-24T22:10:50;2.20;;;1.10;;
34978;SDS011;21185;50.978;13.720;2023-04-24T22:15:53;2.80;;;0.90;;
34978;SDS011;21185;50.978;13.720;2023-04-24T22:20:55;1.45;;;0.90;;
34978;SDS011;21185;50.978;13.720;2023-04-24T22:25:58;2.08;;;1.00;;
34978;SDS011;21185;50.978;13.720;2023-04-24T22:31:06;2.85;;;1.20;;
34978;SDS011;21185;50.978;13.720;2023-04-24T22:36:08;2.90;;;1.20;;
34978;SDS011;21185;50.978;13.720;2023-04-24T22:41:11;1.40;;;1.13;;
34978;SDS011;21185;50.978;13.720;2023-04-24T22:46:13;3.95;;;1.55;;
34978;SDS011;21185;50.978;13.720;2023-04-24T22:51:15;2.47;;;1.30;;
34978;SDS011;21185;50.978;13.720;2023-04-24T22:56:18;1.88;;;1.02;;
34978;SDS011;21185;50.978;13.720;2023-04-24T23:01:20;1.83;;;1.30;;
34978;SDS011;21185;50.978;13.720;2023-04-24T23:06:22;2.63;;;1.30;;
34978;SDS011;21185;50.978;13.720;2023-04-24T23:11:24;6.07;;;1.60;;
34978;SDS011;21185;50.978;13.720;2023-04-24T23:16:26;4.55;;;1.20;;
34978;SDS011;21185;50.978;13.720;2023-04-24T23:21:28;2.78;;;1.50;;
34978;SDS011;21185;50.978;13.720;2023-04-24T23:26:31;2.92;;;1.27;;
34978;SDS011;21185;50.978;13.720;2023-04-24T23:31:34;2.13;;;1.35;;
34978;SDS011;21185;50.978;13.720;2023-04-24T23:36:36;2.25;;;1.40;;
34978;SDS011;21185;50.978;13.720;2023-04-24T23:41:37;2.53;;;1.50;;
34978;SDS011;21185;50.978;13.720;2023-04-24T23:46:39;3.42;;;1.38;;
34978;SDS011;21185;50.978;13.720;2023-04-24T23:51:41;3.20;;;1.25;;
34978;SDS011;21185;50.978;13.720;2023-04-24T23:56:45;2.83;;;1.65;;
